Leipzig Halle Airport EDDP

Flugplatz Daten

Name: Leipzig Halle Airport

Ident: EDDP

Lat: 51,43239975

Long: 12,24160004

Platzhöhe: 465 ft

IataCode: LEJ

City: Leipzig

Homepage: http://www.leipzig-halle-airport.de/en/index.html

Metar

2021/10/20 13:20
EDDP 201320Z 21010KT 180V250 9999 -SHRA FEW025 19/11 Q1006 TEMPO 21015G25KT

Taf

2021/10/20 12:27
TAF EDDP 201100Z 2012/2112 21015KT 9999 FEW035
TEMPO 2012/2016 22020G30KT
BECMG 2104/2107 23025G35KT
TEMPO 2109/2112 23030G50KT
Gewünschte Webcam nicht vorhanden? Dann fügen Sie eine hinzu. Sie wird dann so schnell wie möglich freigeschaltet
Url: Title: